sensor_id;sensor_type;location;lat;lon;timestamp;pressure;altitude;pressure_sealevel;temperature;humidity
50867;BME280;36839;51.946;21.002;2023-04-06T00:01:51;100674.35;;;0.04;85.16
50867;BME280;36839;51.946;21.002;2023-04-06T00:04:17;100673.73;;;0.04;84.28
50867;BME280;36839;51.946;21.002;2023-04-06T00:06:44;100672.42;;;0.07;84.53
50867;BME280;36839;51.946;21.002;2023-04-06T00:09:10;100671.98;;;0.08;85.66
50867;BME280;36839;51.946;21.002;2023-04-06T00:11:36;100669.23;;;0.08;85.74
50867;BME280;36839;51.946;21.002;2023-04-06T00:14:04;100665.52;;;0.09;84.71
50867;BME280;36839;51.946;21.002;2023-04-06T00:16:32;100667.95;;;0.13;84.88
50867;BME280;36839;51.946;21.002;2023-04-06T00:19:01;100668.98;;;0.16;84.68
50867;BME280;36839;51.946;21.002;2023-04-06T00:21:32;100661.21;;;0.17;84.41
50867;BME280;36839;51.946;21.002;2023-04-06T00:24:02;100655.58;;;0.17;84.36
50867;BME280;36839;51.946;21.002;2023-04-06T00:26:33;100654.61;;;0.17;84.24
50867;BME280;36839;51.946;21.002;2023-04-06T00:29:01;100651.20;;;0.15;84.99
50867;BME280;36839;51.946;21.002;2023-04-06T00:31:27;100650.74;;;0.14;85.86
50867;BME280;36839;51.946;21.002;2023-04-06T00:33:54;100647.60;;;0.13;86.18
50867;BME280;36839;51.946;21.002;2023-04-06T00:36:21;100646.96;;;0.11;85.53
50867;BME280;36839;51.946;21.002;2023-04-06T00:38:48;100646.84;;;0.11;85.75
50867;BME280;36839;51.946;21.002;2023-04-06T00:41:17;100640.96;;;0.10;85.04
50867;BME280;36839;51.946;21.002;2023-04-06T00:43:44;100644.50;;;0.09;85.34
50867;BME280;36839;51.946;21.002;2023-04-06T00:46:12;100639.12;;;0.07;86.25
50867;BME280;36839;51.946;21.002;2023-04-06T00:48:40;100639.33;;;0.06;86.52
50867;BME280;36839;51.946;21.002;2023-04-06T00:51:07;100635.75;;;0.04;86.23
50867;BME280;36839;51.946;21.002;2023-04-06T00:53:34;100633.73;;;0.03;85.37
50867;BME280;36839;51.946;21.002;2023-04-06T00:56:01;100634.40;;;0.02;84.84
50867;BME280;36839;51.946;21.002;2023-04-06T00:58:30;100634.18;;;0.01;85.33
50867;BME280;36839;51.946;21.002;2023-04-06T01:00:58;100635.06;;;-0.01;85.44
50867;BME280;36839;51.946;21.002;2023-04-06T01:03:25;100636.39;;;-0.02;84.87
50867;BME280;36839;51.946;21.002;2023-04-06T01:05:51;100633.75;;;-0.02;84.98
50867;BME280;36839;51.946;21.002;2023-04-06T01:08:24;100633.20;;;-0.04;84.66
50867;BME280;36839;51.946;21.002;2023-04-06T01:10:52;100636.82;;;-0.05;85.38
50867;BME280;36839;51.946;21.002;2023-04-06T01:13:18;100632.13;;;-0.07;84.81
50867;BME280;36839;51.946;21.002;2023-04-06T01:15:46;100630.41;;;-0.07;84.80
50867;BME280;36839;51.946;21.002;2023-04-06T01:18:13;100626.13;;;-0.09;85.27
50867;BME280;36839;51.946;21.002;2023-04-06T01:20:39;100636.22;;;-0.10;86.29
50867;BME280;36839;51.946;21.002;2023-04-06T01:23:09;100633.73;;;-0.12;85.79
50867;BME280;36839;51.946;21.002;2023-04-06T01:25:37;100624.90;;;-0.14;85.59
50867;BME280;36839;51.946;21.002;2023-04-06T01:28:05;100622.45;;;-0.16;84.15
50867;BME280;36839;51.946;21.002;2023-04-06T01:30:31;100618.02;;;-0.18;83.87
50867;BME280;36839;51.946;21.002;2023-04-06T01:32:58;100616.54;;;-0.20;84.13
50867;BME280;36839;51.946;21.002;2023-04-06T01:35:27;100613.56;;;-0.26;84.42
50867;BME280;36839;51.946;21.002;2023-04-06T01:37:54;100613.67;;;-0.30;84.60
50867;BME280;36839;51.946;21.002;2023-04-06T01:40:21;100611.14;;;-0.33;84.60
50867;BME280;36839;51.946;21.002;2023-04-06T01:42:48;100610.25;;;-0.34;83.86
50867;BME280;36839;51.946;21.002;2023-04-06T01:45:14;100612.54;;;-0.35;83.50
50867;BME280;36839;51.946;21.002;2023-04-06T01:47:40;100610.27;;;-0.37;83.72
50867;BME280;36839;51.946;21.002;2023-04-06T01:50:08;100605.79;;;-0.39;83.61
50867;BME280;36839;51.946;21.002;2023-04-06T01:52:35;100606.34;;;-0.42;83.49
50867;BME280;36839;51.946;21.002;2023-04-06T01:55:03;100599.85;;;-0.45;83.67
50867;BME280;36839;51.946;21.002;2023-04-06T01:57:31;100600.21;;;-0.48;83.63
50867;BME280;36839;51.946;21.002;2023-04-06T01:59:58;100596.89;;;-0.50;83.84
50867;BME280;36839;51.946;21.002;2023-04-06T02:02:24;100599.09;;;-0.55;83.77
50867;BME280;36839;51.946;21.002;2023-04-06T02:04:50;100593.10;;;-0.58;83.59
50867;BME280;36839;51.946;21.002;2023-04-06T02:07:17;100594.55;;;-0.59;83.80
50867;BME280;36839;51.946;21.002;2023-04-06T02:09:47;100593.56;;;-0.63;84.23
50867;BME280;36839;51.946;21.002;2023-04-06T02:12:14;100595.37;;;-0.66;84.24
50867;BME280;36839;51.946;21.002;2023-04-06T02:14:40;100593.63;;;-0.66;83.94
50867;BME280;36839;51.946;21.002;2023-04-06T02:17:09;100584.89;;;-0.67;84.16
50867;BME280;36839;51.946;21.002;2023-04-06T02:19:36;100584.88;;;-0.69;84.18
50867;BME280;36839;51.946;21.002;2023-04-06T02:22:05;100581.30;;;-0.70;84.62
50867;BME280;36839;51.946;21.002;2023-04-06T02:24:31;100578.72;;;-0.74;85.51
50867;BME280;36839;51.946;21.002;2023-04-06T02:26:59;100573.23;;;-0.77;85.47
50867;BME280;36839;51.946;21.002;2023-04-06T02:29:27;100576.77;;;-0.78;85.32
50867;BME280;36839;51.946;21.002;2023-04-06T02:31:54;100570.91;;;-0.80;85.73
50867;BME280;36839;51.946;21.002;2023-04-06T02:34:22;100568.09;;;-0.83;85.88
50867;BME280;36839;51.946;21.002;2023-04-06T02:36:48;100567.27;;;-0.84;85.59
50867;BME280;36839;51.946;21.002;2023-04-06T02:39:14;100567.67;;;-0.82;85.28
50867;BME280;36839;51.946;21.002;2023-04-06T02:41:42;100565.94;;;-0.81;85.06
50867;BME280;36839;51.946;21.002;2023-04-06T02:44:09;100569.03;;;-0.79;84.78
50867;BME280;36839;51.946;21.002;2023-04-06T02:46:36;100567.19;;;-0.77;84.66
50867;BME280;36839;51.946;21.002;2023-04-06T02:49:02;100566.27;;;-0.76;84.64
50867;BME280;36839;51.946;21.002;2023-04-06T02:51:29;100564.19;;;-0.75;84.66
50867;BME280;36839;51.946;21.002;2023-04-06T02:53:56;100568.38;;;-0.74;84.67
50867;BME280;36839;51.946;21.002;2023-04-06T02:56:24;100566.13;;;-0.73;84.86
50867;BME280;36839;51.946;21.002;2023-04-06T02:58:53;100566.65;;;-0.72;84.86
50867;BME280;36839;51.946;21.002;2023-04-06T03:01:21;100568.28;;;-0.71;84.80
50867;BME280;36839;51.946;21.002;2023-04-06T03:03:47;100569.76;;;-0.69;85.00
50867;BME280;36839;51.946;21.002;2023-04-06T03:06:14;100570.36;;;-0.68;85.44
50867;BME280;36839;51.946;21.002;2023-04-06T03:08:43;100567.66;;;-0.67;85.38
50867;BME280;36839;51.946;21.002;2023-04-06T03:11:11;100566.98;;;-0.66;85.49
50867;BME280;36839;51.946;21.002;2023-04-06T03:13:37;100567.95;;;-0.65;85.53
50867;BME280;36839;51.946;21.002;2023-04-06T03:16:07;100569.84;;;-0.64;85.28
50867;BME280;36839;51.946;21.002;2023-04-06T03:18:34;100569.98;;;-0.62;85.25
50867;BME280;36839;51.946;21.002;2023-04-06T03:21:01;100575.64;;;-0.61;85.62
50867;BME280;36839;51.946;21.002;2023-04-06T03:23:28;100574.92;;;-0.60;85.69
50867;BME280;36839;51.946;21.002;2023-04-06T03:25:55;100576.23;;;-0.59;85.73
50867;BME280;36839;51.946;21.002;2023-04-06T03:28:22;100573.48;;;-0.59;86.23
50867;BME280;36839;51.946;21.002;2023-04-06T03:30:51;100571.48;;;-0.60;86.24
50867;BME280;36839;51.946;21.002;2023-04-06T03:33:17;100574.98;;;-0.59;85.90
50867;BME280;36839;51.946;21.002;2023-04-06T03:35:45;100575.13;;;-0.57;85.70
50867;BME280;36839;51.946;21.002;2023-04-06T03:38:12;100573.70;;;-0.58;85.46
50867;BME280;36839;51.946;21.002;2023-04-06T03:40:38;100573.68;;;-0.57;85.43
50867;BME280;36839;51.946;21.002;2023-04-06T03:43:05;100576.11;;;-0.56;85.54
50867;BME280;36839;51.946;21.002;2023-04-06T03:45:35;100575.23;;;-0.56;85.75
50867;BME280;36839;51.946;21.002;2023-04-06T03:48:02;100573.66;;;-0.55;85.84
50867;BME280;36839;51.946;21.002;2023-04-06T03:50:30;100578.77;;;-0.54;85.55
50867;BME280;36839;51.946;21.002;2023-04-06T03:52:57;100573.74;;;-0.52;85.80
50867;BME280;36839;51.946;21.002;2023-04-06T03:55:23;100575.55;;;-0.50;86.25
50867;BME280;36839;51.946;21.002;2023-04-06T03:57:50;100572.55;;;-0.49;86.51
50867;BME280;36839;51.946;21.002;2023-04-06T04:00:19;100573.67;;;-0.50;87.02
50867;BME280;36839;51.946;21.002;2023-04-06T04:02:55;100572.71;;;-0.51;87.82
50867;BME280;36839;51.946;21.002;2023-04-06T04:05:25;100573.59;;;-0.50;88.05
50867;BME280;36839;51.946;21.002;2023-04-06T04:07:54;100576.42;;;-0.52;88.43
50867;BME280;36839;51.946;21.002;2023-04-06T04:10:24;100569.48;;;-0.52;88.80
50867;BME280;36839;51.946;21.002;2023-04-06T04:12:52;100572.85;;;-0.53;89.09
50867;BME280;36839;51.946;21.002;2023-04-06T04:15:21;100567.18;;;-0.53;89.24
50867;BME280;36839;51.946;21.002;2023-04-06T04:17:49;100567.21;;;-0.54;89.56
50867;BME280;36839;51.946;21.002;2023-04-06T04:20:19;100566.17;;;-0.52;89.63
50867;BME280;36839;51.946;21.002;2023-04-06T04:22:49;100568.70;;;-0.52;89.62
50867;BME280;36839;51.946;21.002;2023-04-06T04:25:17;100566.14;;;-0.52;89.68
50867;BME280;36839;51.946;21.002;2023-04-06T04:27:45;100567.85;;;-0.52;90.12
50867;BME280;36839;51.946;21.002;2023-04-06T04:30:14;100563.95;;;-0.50;89.87
50867;BME280;36839;51.946;21.002;2023-04-06T04:32:44;100566.40;;;-0.48;89.90
50867;BME280;36839;51.946;21.002;2023-04-06T04:35:12;100564.27;;;-0.45;90.02
50867;BME280;36839;51.946;21.002;2023-04-06T04:37:40;100559.77;;;-0.45;90.24
50867;BME280;36839;51.946;21.002;2023-04-06T04:40:17;100558.84;;;-0.41;90.58
50867;BME280;36839;51.946;21.002;2023-04-06T04:42:43;100558.78;;;-0.36;90.79
50867;BME280;36839;51.946;21.002;2023-04-06T04:45:12;100553.81;;;-0.33;90.89
50867;BME280;36839;51.946;21.002;2023-04-06T04:47:44;100556.29;;;-0.28;90.64
50867;BME280;36839;51.946;21.002;2023-04-06T04:50:10;100550.53;;;-0.24;90.58
50867;BME280;36839;51.946;21.002;2023-04-06T04:52:37;100548.73;;;-0.19;90.87
50867;BME280;36839;51.946;21.002;2023-04-06T04:55:05;100545.04;;;-0.15;90.63
50867;BME280;36839;51.946;21.002;2023-04-06T04:57:32;100542.25;;;-0.10;90.58
50867;BME280;36839;51.946;21.002;2023-04-06T05:00:01;100545.01;;;-0.06;90.81
50867;BME280;36839;51.946;21.002;2023-04-06T05:02:33;100550.22;;;-0.02;90.39
50867;BME280;36839;51.946;21.002;2023-04-06T05:05:01;100547.75;;;0.01;90.47
50867;BME280;36839;51.946;21.002;2023-04-06T05:07:30;100545.64;;;0.02;90.91
50867;BME280;36839;51.946;21.002;2023-04-06T05:09:57;100550.29;;;0.05;90.75
50867;BME280;36839;51.946;21.002;2023-04-06T05:12:23;100550.23;;;0.08;90.65
50867;BME280;36839;51.946;21.002;2023-04-06T05:14:51;100551.58;;;0.12;90.23
50867;BME280;36839;51.946;21.002;2023-04-06T05:17:21;100547.28;;;0.14;90.12
50867;BME280;36839;51.946;21.002;2023-04-06T05:19:48;100550.12;;;0.18;90.54
50867;BME280;36839;51.946;21.002;2023-04-06T05:22:15;100552.16;;;0.22;90.14
50867;BME280;36839;51.946;21.002;2023-04-06T05:24:44;100545.58;;;0.25;90.17
50867;BME280;36839;51.946;21.002;2023-04-06T05:27:11;100544.14;;;0.31;90.46
50867;BME280;36839;51.946;21.002;2023-04-06T05:29:38;100541.30;;;0.36;90.01
50867;BME280;36839;51.946;21.002;2023-04-06T05:32:06;100542.55;;;0.43;90.10
50867;BME280;36839;51.946;21.002;2023-04-06T05:34:33;100544.52;;;0.47;89.74
50867;BME280;36839;51.946;21.002;2023-04-06T05:37:01;100537.66;;;0.53;89.29
50867;BME280;36839;51.946;21.002;2023-04-06T05:39:28;100537.79;;;0.58;88.80
50867;BME280;36839;51.946;21.002;2023-04-06T05:41:55;100534.27;;;0.64;88.89
50867;BME280;36839;51.946;21.002;2023-04-06T05:44:22;100538.85;;;0.69;88.04
50867;BME280;36839;51.946;21.002;2023-04-06T05:46:48;100537.10;;;0.77;87.59
50867;BME280;36839;51.946;21.002;2023-04-06T05:49:16;100536.41;;;0.82;87.60
50867;BME280;36839;51.946;21.002;2023-04-06T05:51:42;100533.80;;;0.84;87.98
50867;BME280;36839;51.946;21.002;2023-04-06T05:54:09;100532.80;;;0.91;87.19
50867;BME280;36839;51.946;21.002;2023-04-06T05:56:37;100537.48;;;0.99;86.90
50867;BME280;36839;51.946;21.002;2023-04-06T05:59:05;100536.82;;;1.05;87.68
50867;BME280;36839;51.946;21.002;2023-04-06T06:01:40;100535.04;;;1.10;87.41
50867;BME280;36839;51.946;21.002;2023-04-06T06:04:07;100531.91;;;1.21;88.24
50867;BME280;36839;51.946;21.002;2023-04-06T06:06:35;100531.39;;;1.23;86.80
50867;BME280;36839;51.946;21.002;2023-04-06T06:09:05;100531.65;;;1.27;86.57
50867;BME280;36839;51.946;21.002;2023-04-06T06:11:32;100522.78;;;1.31;84.06
50867;BME280;36839;51.946;21.002;2023-04-06T06:13:59;100518.94;;;1.31;82.37
50867;BME280;36839;51.946;21.002;2023-04-06T06:16:29;100516.54;;;1.34;81.88
50867;BME280;36839;51.946;21.002;2023-04-06T06:18:56;100515.01;;;1.32;79.45
50867;BME280;36839;51.946;21.002;2023-04-06T06:21:24;100517.13;;;1.36;79.64
50867;BME280;36839;51.946;21.002;2023-04-06T06:23:52;100509.48;;;1.38;78.83
50867;BME280;36839;51.946;21.002;2023-04-06T06:26:30;100508.87;;;1.42;78.56
50867;BME280;36839;51.946;21.002;2023-04-06T06:28:58;100507.55;;;1.43;78.17
50867;BME280;36839;51.946;21.002;2023-04-06T06:31:52;100510.64;;;1.47;79.67
50867;BME280;36839;51.946;21.002;2023-04-06T06:34:40;100512.46;;;1.56;80.42
50867;BME280;36839;51.946;21.002;2023-04-06T06:37:06;100505.59;;;1.55;79.04
50867;BME280;36839;51.946;21.002;2023-04-06T06:39:36;100503.88;;;1.59;81.07
50867;BME280;36839;51.946;21.002;2023-04-06T06:42:07;100496.40;;;1.61;80.11
50867;BME280;36839;51.946;21.002;2023-04-06T06:44:35;100496.64;;;1.59;79.21
50867;BME280;36839;51.946;21.002;2023-04-06T06:47:03;100500.95;;;1.57;78.79
50867;BME280;36839;51.946;21.002;2023-04-06T06:49:30;100498.09;;;1.57;77.83
50867;BME280;36839;51.946;21.002;2023-04-06T06:52:01;100506.64;;;1.58;78.29
50867;BME280;36839;51.946;21.002;2023-04-06T06:54:28;100513.35;;;1.54;79.17
50867;BME280;36839;51.946;21.002;2023-04-06T06:56:56;100508.45;;;1.57;80.02
50867;BME280;36839;51.946;21.002;2023-04-06T06:59:33;100504.39;;;1.58;80.38
50867;BME280;36839;51.946;21.002;2023-04-06T07:02:02;100505.00;;;1.63;81.54
50867;BME280;36839;51.946;21.002;2023-04-06T07:04:30;100504.17;;;1.72;81.25
50867;BME280;36839;51.946;21.002;2023-04-06T07:06:56;100506.25;;;1.69;82.14
50867;BME280;36839;51.946;21.002;2023-04-06T07:09:24;100506.56;;;1.58;83.20
50867;BME280;36839;51.946;21.002;2023-04-06T07:11:55;100506.73;;;1.57;84.44
50867;BME280;36839;51.946;21.002;2023-04-06T07:14:28;100503.94;;;1.48;84.70
50867;BME280;36839;51.946;21.002;2023-04-06T07:16:55;100495.27;;;1.44;85.05
50867;BME280;36839;51.946;21.002;2023-04-06T07:19:21;100496.10;;;1.47;87.33
50867;BME280;36839;51.946;21.002;2023-04-06T07:21:50;100496.52;;;1.45;86.23
50867;BME280;36839;51.946;21.002;2023-04-06T07:24:19;100504.14;;;1.45;86.83
50867;BME280;36839;51.946;21.002;2023-04-06T07:26:49;100497.02;;;1.54;86.44
50867;BME280;36839;51.946;21.002;2023-04-06T07:29:16;100494.50;;;2.02;88.15
50867;BME280;36839;51.946;21.002;2023-04-06T07:31:45;100498.47;;;2.21;85.19
50867;BME280;36839;51.946;21.002;2023-04-06T07:34:14;100492.76;;;2.13;84.00
50867;BME280;36839;51.946;21.002;2023-04-06T07:36:58;100491.25;;;2.10;85.48
50867;BME280;36839;51.946;21.002;2023-04-06T07:39:35;100485.55;;;2.09;84.60
50867;BME280;36839;51.946;21.002;2023-04-06T07:42:06;100488.93;;;1.96;82.62
50867;BME280;36839;51.946;21.002;2023-04-06T07:44:33;100481.67;;;1.91;83.91
50867;BME280;36839;51.946;21.002;2023-04-06T07:47:00;100484.95;;;1.95;84.58
50867;BME280;36839;51.946;21.002;2023-04-06T07:49:27;100489.23;;;2.05;85.42
50867;BME280;36839;51.946;21.002;2023-04-06T07:51:56;100488.30;;;2.02;84.95
50867;BME280;36839;51.946;21.002;2023-04-06T07:54:23;100486.17;;;2.10;85.29
50867;BME280;36839;51.946;21.002;2023-04-06T07:56:52;100479.68;;;2.11;84.68
50867;BME280;36839;51.946;21.002;2023-04-06T07:59:20;100478.75;;;2.19;84.23
50867;BME280;36839;51.946;21.002;2023-04-06T08:01:49;100476.50;;;2.31;85.18
50867;BME280;36839;51.946;21.002;2023-04-06T08:04:18;100479.24;;;2.37;85.50
50867;BME280;36839;51.946;21.002;2023-04-06T08:06:45;100477.16;;;2.35;83.60
50867;BME280;36839;51.946;21.002;2023-04-06T08:09:12;100478.59;;;2.37;85.67
50867;BME280;36839;51.946;21.002;2023-04-06T08:11:38;100476.29;;;2.36;86.37
50867;BME280;36839;51.946;21.002;2023-04-06T08:14:06;100474.81;;;2.33;87.28
50867;BME280;36839;51.946;21.002;2023-04-06T08:16:34;100474.91;;;2.27;87.65
50867;BME280;36839;51.946;21.002;2023-04-06T08:19:01;100473.31;;;2.21;87.54
50867;BME280;36839;51.946;21.002;2023-04-06T08:21:30;100474.86;;;2.18;88.51
50867;BME280;36839;51.946;21.002;2023-04-06T08:23:57;100467.33;;;2.12;89.27
50867;BME280;36839;51.946;21.002;2023-04-06T08:26:27;100466.60;;;2.17;90.72
50867;BME280;36839;51.946;21.002;2023-04-06T08:28:55;100465.72;;;2.32;92.65
50867;BME280;36839;51.946;21.002;2023-04-06T08:31:30;100466.93;;;2.28;91.77
50867;BME280;36839;51.946;21.002;2023-04-06T08:33:58;100466.89;;;2.19;92.17
50867;BME280;36839;51.946;21.002;2023-04-06T08:36:24;100474.95;;;2.14;92.81
50867;BME280;36839;51.946;21.002;2023-04-06T08:38:51;100476.29;;;2.09;92.73
50867;BME280;36839;51.946;21.002;2023-04-06T08:41:18;100475.95;;;2.14;93.10
50867;BME280;36839;51.946;21.002;2023-04-06T08:44:05;100470.04;;;2.15;93.01
50867;BME280;36839;51.946;21.002;2023-04-06T08:46:32;100464.50;;;2.05;93.87
50867;BME280;36839;51.946;21.002;2023-04-06T08:49:02;100458.59;;;2.07;95.02
50867;BME280;36839;51.946;21.002;2023-04-06T08:51:29;100468.36;;;2.14;95.87
50867;BME280;36839;51.946;21.002;2023-04-06T08:53:58;100461.23;;;2.09;95.24
50867;BME280;36839;51.946;21.002;2023-04-06T08:56:28;100457.63;;;1.98;97.05
50867;BME280;36839;51.946;21.002;2023-04-06T08:58:57;100459.52;;;1.91;97.29
50867;BME280;36839;51.946;21.002;2023-04-06T09:01:26;100455.02;;;1.91;98.81
50867;BME280;36839;51.946;21.002;2023-04-06T09:03:56;100456.29;;;1.91;99.49
50867;BME280;36839;51.946;21.002;2023-04-06T09:06:25;100454.77;;;1.82;99.03
50867;BME280;36839;51.946;21.002;2023-04-06T09:08:55;100454.63;;;1.73;98.70
50867;BME280;36839;51.946;21.002;2023-04-06T09:11:23;100449.79;;;1.69;98.98
50867;BME280;36839;51.946;21.002;2023-04-06T09:13:54;100442.73;;;1.73;99.90
50867;BME280;36839;51.946;21.002;2023-04-06T09:16:22;100442.77;;;1.68;99.97
50867;BME280;36839;51.946;21.002;2023-04-06T09:18:49;100444.21;;;1.67;100.00
50867;BME280;36839;51.946;21.002;2023-04-06T09:21:20;100439.04;;;1.73;100.00
50867;BME280;36839;51.946;21.002;2023-04-06T09:23:59;100441.81;;;1.85;100.00
50867;BME280;36839;51.946;21.002;2023-04-06T09:26:26;100441.95;;;1.92;100.00
50867;BME280;36839;51.946;21.002;2023-04-06T09:28:57;100439.72;;;1.80;100.00
50867;BME280;36839;51.946;21.002;2023-04-06T09:31:30;100446.38;;;1.74;100.00
50867;BME280;36839;51.946;21.002;2023-04-06T09:34:00;100440.12;;;1.70;100.00
50867;BME280;36839;51.946;21.002;2023-04-06T09:36:36;100434.93;;;1.69;100.00
50867;BME280;36839;51.946;21.002;2023-04-06T09:39:07;100436.19;;;1.65;100.00
50867;BME280;36839;51.946;21.002;2023-04-06T09:41:35;100442.29;;;1.61;100.00
50867;BME280;36839;51.946;21.002;2023-04-06T09:44:09;100436.62;;;1.51;100.00
50867;BME280;36839;51.946;21.002;2023-04-06T09:46:39;100437.11;;;1.51;100.00
50867;BME280;36839;51.946;21.002;2023-04-06T09:49:10;100436.30;;;1.47;100.00
50867;BME280;36839;51.946;21.002;2023-04-06T09:51:41;100443.97;;;1.44;100.00
50867;BME280;36839;51.946;21.002;2023-04-06T09:54:11;100437.09;;;1.42;100.00
50867;BME280;36839;51.946;21.002;2023-04-06T09:56:47;100440.42;;;1.38;100.00
50867;BME280;36839;51.946;21.002;2023-04-06T09:59:43;100433.77;;;1.36;100.00
50867;BME280;36839;51.946;21.002;2023-04-06T10:02:12;100426.09;;;1.31;100.00
50867;BME280;36839;51.946;21.002;2023-04-06T10:05:09;100424.65;;;1.33;100.00
50867;BME280;36839;51.946;21.002;2023-04-06T10:07:44;100431.27;;;1.27;100.00
50867;BME280;36839;51.946;21.002;2023-04-06T10:10:14;100430.79;;;1.10;100.00
50867;BME280;36839;51.946;21.002;2023-04-06T10:12:45;100424.59;;;0.96;100.00
50867;BME280;36839;51.946;21.002;2023-04-06T10:15:14;100426.59;;;0.85;100.00
50867;BME280;36839;51.946;21.002;2023-04-06T10:17:51;100418.76;;;0.75;100.00
50867;BME280;36839;51.946;21.002;2023-04-06T10:20:47;100418.89;;;0.76;100.00
50867;BME280;36839;51.946;21.002;2023-04-06T10:23:29;100425.09;;;0.65;100.00
50867;BME280;36839;51.946;21.002;2023-04-06T10:25:59;100414.24;;;0.68;100.00
50867;BME280;36839;51.946;21.002;2023-04-06T10:28:33;100413.02;;;0.73;100.00
50867;BME280;36839;51.946;21.002;2023-04-06T10:31:04;100407.53;;;0.79;100.00
50867;BME280;36839;51.946;21.002;2023-04-06T10:33:33;100412.95;;;0.85;100.00
50867;BME280;36839;51.946;21.002;2023-04-06T10:36:13;100409.94;;;0.76;100.00
50867;BME280;36839;51.946;21.002;2023-04-06T10:38:45;100406.23;;;0.81;100.00
50867;BME280;36839;51.946;21.002;2023-04-06T10:41:12;100408.14;;;0.84;100.00
50867;BME280;36839;51.946;21.002;2023-04-06T10:43:40;100410.92;;;0.90;100.00
50867;BME280;36839;51.946;21.002;2023-04-06T10:46:09;100407.72;;;0.86;100.00
50867;BME280;36839;51.946;21.002;2023-04-06T10:48:47;100404.60;;;0.87;100.00
50867;BME280;36839;51.946;21.002;2023-04-06T10:51:16;100404.92;;;0.77;100.00
50867;BME280;36839;51.946;21.002;2023-04-06T10:53:47;100394.27;;;0.78;100.00
50867;BME280;36839;51.946;21.002;2023-04-06T10:56:20;100390.51;;;0.78;100.00
50867;BME280;36839;51.946;21.002;2023-04-06T10:58:51;100388.04;;;0.79;100.00
50867;BME280;36839;51.946;21.002;2023-04-06T11:01:20;100389.77;;;0.78;100.00
50867;BME280;36839;51.946;21.002;2023-04-06T11:03:52;100384.95;;;0.72;100.00
50867;BME280;36839;51.946;21.002;2023-04-06T11:06:26;100382.58;;;0.74;100.00
50867;BME280;36839;51.946;21.002;2023-04-06T11:08:55;100382.23;;;0.78;100.00
50867;BME280;36839;51.946;21.002;2023-04-06T11:11:24;100379.48;;;0.84;100.00
50867;BME280;36839;51.946;21.002;2023-04-06T11:13:54;100377.95;;;0.91;100.00
50867;BME280;36839;51.946;21.002;2023-04-06T11:16:24;100375.70;;;0.93;100.00
50867;BME280;36839;51.946;21.002;2023-04-06T11:18:59;100381.67;;;0.97;100.00
50867;BME280;36839;51.946;21.002;2023-04-06T11:21:36;100375.15;;;1.00;100.00
50867;BME280;36839;51.946;21.002;2023-04-06T11:24:15;100370.00;;;1.01;100.00
50867;BME280;36839;51.946;21.002;2023-04-06T11:26:48;100368.33;;;1.00;100.00
50867;BME280;36839;51.946;21.002;2023-04-06T11:29:29;100367.96;;;1.04;100.00
50867;BME280;36839;51.946;21.002;2023-04-06T11:32:05;100363.04;;;1.09;100.00
50867;BME280;36839;51.946;21.002;2023-04-06T11:34:36;100366.77;;;1.10;100.00
50867;BME280;36839;51.946;21.002;2023-04-06T11:37:08;100363.63;;;1.10;100.00
50867;BME280;36839;51.946;21.002;2023-04-06T11:39:39;100365.09;;;1.10;100.00
50867;BME280;36839;51.946;21.002;2023-04-06T11:42:07;100357.56;;;1.11;100.00
50867;BME280;36839;51.946;21.002;2023-04-06T11:44:44;100357.32;;;1.13;100.00
50867;BME280;36839;51.946;21.002;2023-04-06T11:47:15;100350.41;;;1.07;100.00
50867;BME280;36839;51.946;21.002;2023-04-06T11:49:43;100348.35;;;1.05;100.00
50867;BME280;36839;51.946;21.002;2023-04-06T11:52:18;100341.32;;;1.06;100.00
50867;BME280;36839;51.946;21.002;2023-04-06T11:54:47;100339.52;;;1.07;100.00
50867;BME280;36839;51.946;21.002;2023-04-06T11:57:15;100335.50;;;1.07;100.00
50867;BME280;36839;51.946;21.002;2023-04-06T11:59:45;100332.49;;;1.13;100.00
50867;BME280;36839;51.946;21.002;2023-04-06T12:02:14;100330.75;;;1.17;100.00
50867;BME280;36839;51.946;21.002;2023-04-06T12:04:41;100329.97;;;1.16;100.00
50867;BME280;36839;51.946;21.002;2023-04-06T12:07:07;100321.89;;;1.18;100.00
50867;BME280;36839;51.946;21.002;2023-04-06T12:09:35;100320.80;;;1.26;100.00
50867;BME280;36839;51.946;21.002;2023-04-06T12:12:08;100324.36;;;1.28;100.00
50867;BME280;36839;51.946;21.002;2023-04-06T12:14:34;100329.72;;;1.31;100.00
50867;BME280;36839;51.946;21.002;2023-04-06T12:17:05;100328.46;;;1.30;100.00
50867;BME280;36839;51.946;21.002;2023-04-06T12:19:32;100318.81;;;1.35;100.00
50867;BME280;36839;51.946;21.002;2023-04-06T12:22:02;100316.13;;;1.37;100.00
50867;BME280;36839;51.946;21.002;2023-04-06T12:24:30;100315.50;;;1.38;100.00
50867;BME280;36839;51.946;21.002;2023-04-06T12:26:57;100317.80;;;1.40;100.00
50867;BME280;36839;51.946;21.002;2023-04-06T12:29:26;100311.11;;;1.36;100.00
50867;BME280;36839;51.946;21.002;2023-04-06T12:31:55;100312.44;;;1.33;100.00
50867;BME280;36839;51.946;21.002;2023-04-06T12:34:22;100307.77;;;1.34;100.00
50867;BME280;36839;51.946;21.002;2023-04-06T12:36:51;100312.45;;;1.35;100.00
50867;BME280;36839;51.946;21.002;2023-04-06T12:39:21;100305.61;;;1.40;100.00
50867;BME280;36839;51.946;21.002;2023-04-06T12:41:49;100303.31;;;1.39;100.00
50867;BME280;36839;51.946;21.002;2023-04-06T12:44:15;100311.10;;;1.40;100.00
50867;BME280;36839;51.946;21.002;2023-04-06T12:46:43;100304.23;;;1.37;100.00
50867;BME280;36839;51.946;21.002;2023-04-06T12:49:14;100309.01;;;1.40;100.00
50867;BME280;36839;51.946;21.002;2023-04-06T12:51:43;100300.97;;;1.38;100.00
50867;BME280;36839;51.946;21.002;2023-04-06T12:54:11;100298.41;;;1.39;100.00